Time;durP1;ratioP1;P1;durP2;ratioP2;P2;SDS_P1;SDS_P2;PMS_P1;PMS_P2;Temp;Humidity;BMP_temperature;BMP_pressure;BME280_temperature;BME280_humidity;BME280_pressure;Samples;Min_cycle;Max_cycle;Signal;HPM_P1;HPM_P2
2023/04/10 00:00:08;;;;;;;4.10;3.90;;;;;;;;;;5097105;28;20020;-27
2023/04/10 00:02:36;;;;;;;4.00;3.80;;;;;;;;;;5096946;28;20024;-26
2023/04/10 00:05:02;;;;;;;3.97;3.78;;;;;;;;;;5097036;28;20031;-26
2023/04/10 00:07:28;;;;;;;3.72;3.53;;;;;;;;;;5096679;28;20032;-27
2023/04/10 00:09:54;;;;;;;4.63;4.32;;;;;;;;;;5096877;28;20039;-27
2023/04/10 00:12:21;;;;;;;4.30;4.10;;;;;;;;;;5096804;28;20363;-30
2023/04/10 00:14:47;;;;;;;4.05;3.85;;;;;;;;;;5096588;28;20024;-29
2023/04/10 00:17:13;;;;;;;4.35;4.15;;;;;;;;;;5096480;28;20436;-30
2023/04/10 00:19:39;;;;;;;4.13;3.83;;;;;;;;;;5096492;28;20044;-30
2023/04/10 00:22:05;;;;;;;4.43;4.22;;;;;;;;;;5096325;28;20028;-27
2023/04/10 00:24:31;;;;;;;4.38;4.18;;;;;;;;;;5096200;28;20024;-28
2023/04/10 00:26:57;;;;;;;5.03;4.72;;;;;;;;;;5096300;28;20031;-28
2023/04/10 00:29:24;;;;;;;4.50;4.20;;;;;;;;;;5096187;28;20035;-28
2023/04/10 00:31:50;;;;;;;4.38;4.15;;;;;;;;;;5096134;28;20391;-30
2023/04/10 00:34:16;;;;;;;4.22;4.03;;;;;;;;;;5096127;28;20073;-36
2023/04/10 00:36:42;;;;;;;4.18;3.97;;;;;;;;;;5096141;28;20062;-34
2023/04/10 00:39:08;;;;;;;3.85;3.65;;;;;;;;;;5096319;28;20024;-31
2023/04/10 00:41:35;;;;;;;3.97;3.78;;;;;;;;;;5096301;28;20085;-30
2023/04/10 00:44:01;;;;;;;3.92;3.72;;;;;;;;;;5095898;28;20089;-31
2023/04/10 00:46:27;;;;;;;5.05;4.75;;;;;;;;;;5096190;28;20046;-26
2023/04/10 00:48:54;;;;;;;3.88;3.67;;;;;;;;;;5095664;28;20032;-27
2023/04/10 00:51:21;;;;;;;4.40;4.18;;;;;;;;;;5095756;28;20412;-27
2023/04/10 00:53:50;;;;;;;4.40;4.20;;;;;;;;;;5096012;28;20347;-29
2023/04/10 00:56:16;;;;;;;4.43;4.22;;;;;;;;;;5096002;28;20052;-29
2023/04/10 00:58:42;;;;;;;4.45;4.15;;;;;;;;;;5095982;28;20023;-33
2023/04/10 01:01:09;;;;;;;3.60;3.40;;;;;;;;;;5095629;28;20092;-29
2023/04/10 01:03:36;;;;;;;4.60;4.30;;;;;;;;;;5095552;28;20095;-29
2023/04/10 01:06:16;;;;;;;4.20;4.00;;;;;;;;;;5094611;28;20414;-29
2023/04/10 01:09:00;;;;;;;3.88;3.67;;;;;;;;;;5095564;28;20024;-27
2023/04/10 01:11:34;;;;;;;3.72;3.53;;;;;;;;;;5095738;28;20412;-29
2023/04/10 01:14:06;;;;;;;4.53;4.32;;;;;;;;;;5095383;28;20016;-27
2023/04/10 01:16:39;;;;;;;4.13;3.83;;;;;;;;;;5095392;28;20024;-29
2023/04/10 01:19:08;;;;;;;4.43;4.13;;;;;;;;;;5095912;28;20020;-27
2023/04/10 01:21:35;;;;;;;4.70;4.40;;;;;;;;;;5096082;28;20043;-32
2023/04/10 01:24:09;;;;;;;4.05;3.85;;;;;;;;;;5095214;28;20169;-30
2023/04/10 01:26:53;;;;;;;3.97;3.78;;;;;;;;;;5095225;28;20024;-26
2023/04/10 01:29:21;;;;;;;4.25;4.05;;;;;;;;;;5095374;28;20024;-29
2023/04/10 01:31:52;;;;;;;3.85;3.65;;;;;;;;;;5095060;28;20028;-32
2023/04/10 01:34:22;;;;;;;4.50;4.20;;;;;;;;;;5095423;28;20059;-31
2023/04/10 01:36:50;;;;;;;4.22;3.92;;;;;;;;;;5094917;28;20024;-29
2023/04/10 01:39:20;;;;;;;4.07;3.88;;;;;;;;;;5094410;28;20035;-31
2023/04/10 01:41:50;;;;;;;3.63;3.42;;;;;;;;;;5094931;28;20031;-28
2023/04/10 01:44:17;;;;;;;4.15;3.95;;;;;;;;;;5095273;28;20347;-29
2023/04/10 01:46:44;;;;;;;4.05;3.85;;;;;;;;;;5094986;28;20081;-29
2023/04/10 01:49:11;;;;;;;4.20;3.92;;;;;;;;;;5094598;28;20124;-27
2023/04/10 01:51:37;;;;;;;3.70;3.50;;;;;;;;;;5095205;28;20028;-30
2023/04/10 01:54:05;;;;;;;4.38;4.18;;;;;;;;;;5094793;28;20035;-30
2023/04/10 01:56:32;;;;;;;4.45;4.25;;;;;;;;;;5094797;28;20020;-31
2023/04/10 01:58:58;;;;;;;4.05;3.85;;;;;;;;;;5095045;28;20058;-30
2023/04/10 02:01:25;;;;;;;4.72;4.43;;;;;;;;;;5095314;28;20089;-27
2023/04/10 02:03:52;;;;;;;4.07;3.88;;;;;;;;;;5094695;28;20104;-30
2023/04/10 02:06:26;;;;;;;4.00;3.80;;;;;;;;;;5094715;28;20060;-29
2023/04/10 02:08:56;;;;;;;4.38;4.03;;;;;;;;;;5094746;28;20081;-29
2023/04/10 02:11:36;;;;;;;4.30;4.07;;;;;;;;;;5094855;28;20404;-26
2023/04/10 02:14:05;;;;;;;4.25;4.05;;;;;;;;;;5094589;28;20463;-31
2023/04/10 02:16:32;;;;;;;4.30;4.07;;;;;;;;;;5094871;28;20024;-27
2023/04/10 02:18:59;;;;;;;4.00;3.80;;;;;;;;;;5094601;28;20024;-29
2023/04/10 02:21:27;;;;;;;4.13;3.92;;;;;;;;;;5094588;28;20035;-27
2023/04/10 02:23:54;;;;;;;4.18;3.92;;;;;;;;;;5094765;28;20020;-29
2023/04/10 02:26:20;;;;;;;4.15;3.95;;;;;;;;;;5094823;28;20030;-29
2023/04/10 02:28:46;;;;;;;4.10;3.90;;;;;;;;;;5094792;28;20108;-31
2023/04/10 02:31:12;;;;;;;4.03;3.83;;;;;;;;;;5094672;28;20039;-32
2023/04/10 02:33:38;;;;;;;3.90;3.70;;;;;;;;;;5094648;28;20102;-26
2023/04/10 02:36:05;;;;;;;4.18;3.88;;;;;;;;;;5094690;28;20025;-29
2023/04/10 02:38:31;;;;;;;3.67;3.47;;;;;;;;;;5094938;28;20085;-30
2023/04/10 02:40:57;;;;;;;4.20;4.00;;;;;;;;;;5094672;28;20029;-30
2023/04/10 02:43:23;;;;;;;3.95;3.75;;;;;;;;;;5094571;28;20108;-30
2023/04/10 02:45:50;;;;;;;4.20;4.00;;;;;;;;;;5094343;28;20111;-34
2023/04/10 02:48:16;;;;;;;4.13;3.92;;;;;;;;;;5095228;28;20347;-30
2023/04/10 02:50:44;;;;;;;3.90;3.70;;;;;;;;;;5098421;28;20028;-28
2023/04/10 02:53:13;;;;;;;3.53;3.33;;;;;;;;;;5098357;28;20028;-31
2023/04/10 02:55:39;;;;;;;4.25;4.05;;;;;;;;;;5098344;28;20127;-26
2023/04/10 02:58:05;;;;;;;3.97;3.78;;;;;;;;;;5098026;28;20447;-29
2023/04/10 03:00:32;;;;;;;4.22;3.88;;;;;;;;;;5097985;28;20039;-29
2023/04/10 03:02:58;;;;;;;3.70;3.50;;;;;;;;;;5097886;28;20085;-31
2023/04/10 03:05:25;;;;;;;3.95;3.75;;;;;;;;;;5096961;28;20038;-33
2023/04/10 03:07:53;;;;;;;3.70;3.50;;;;;;;;;;5096920;28;20024;-31
2023/04/10 03:10:19;;;;;;;3.83;3.63;;;;;;;;;;5097697;28;20454;-30
2023/04/10 03:12:45;;;;;;;4.20;4.00;;;;;;;;;;5097933;28;20024;-28
2023/04/10 03:15:11;;;;;;;4.28;4.07;;;;;;;;;;5097971;28;20324;-30
2023/04/10 03:17:37;;;;;;;4.15;3.85;;;;;;;;;;5097749;28;20051;-30
2023/04/10 03:20:03;;;;;;;3.78;3.58;;;;;;;;;;5097627;28;20028;-26
2023/04/10 03:22:31;;;;;;;4.28;4.07;;;;;;;;;;5097525;28;20028;-28
2023/04/10 03:24:58;;;;;;;4.00;3.80;;;;;;;;;;5097495;28;20032;-30
2023/04/10 03:27:24;;;;;;;4.40;4.18;;;;;;;;;;5097498;28;20032;-27
2023/04/10 03:29:50;;;;;;;4.10;3.90;;;;;;;;;;5097690;28;20055;-27
2023/04/10 03:32:16;;;;;;;4.18;3.97;;;;;;;;;;5097340;28;20064;-27
2023/04/10 03:34:42;;;;;;;3.90;3.70;;;;;;;;;;5097630;28;20499;-30
2023/04/10 03:37:08;;;;;;;3.97;3.72;;;;;;;;;;5097318;28;20117;-30
2023/04/10 03:39:36;;;;;;;4.18;3.88;;;;;;;;;;5097264;28;20166;-30
2023/04/10 03:42:02;;;;;;;4.15;3.92;;;;;;;;;;5097084;28;20110;-30
2023/04/10 03:44:28;;;;;;;4.45;4.15;;;;;;;;;;5097460;28;20028;-29
2023/04/10 03:46:54;;;;;;;4.00;3.80;;;;;;;;;;5097672;28;20028;-27
2023/04/10 03:49:20;;;;;;;4.20;4.00;;;;;;;;;;5096799;28;20044;-28
2023/04/10 03:51:46;;;;;;;4.55;4.25;;;;;;;;;;5097060;28;20037;-29
2023/04/10 03:54:12;;;;;;;4.10;3.88;;;;;;;;;;5096957;28;20111;-29
2023/04/10 03:56:39;;;;;;;3.70;3.50;;;;;;;;;;5097189;28;20035;-26
2023/04/10 03:59:05;;;;;;;4.05;3.85;;;;;;;;;;5096361;28;20020;-27
2023/04/10 04:01:32;;;;;;;4.13;3.92;;;;;;;;;;5097075;28;20435;-30
2023/04/10 04:03:58;;;;;;;3.70;3.50;;;;;;;;;;5096765;28;20070;-27
2023/04/10 04:06:24;;;;;;;4.25;3.95;;;;;;;;;;5096724;28;20028;-29
2023/04/10 04:08:50;;;;;;;3.80;3.60;;;;;;;;;;5096709;28;20115;-31
2023/04/10 04:11:16;;;;;;;3.90;3.70;;;;;;;;;;5096546;28;20085;-30
2023/04/10 04:13:42;;;;;;;3.90;3.70;;;;;;;;;;5095556;28;20057;-30
2023/04/10 04:16:09;;;;;;;4.10;3.90;;;;;;;;;;5096559;28;20028;-29
2023/04/10 04:18:36;;;;;;;3.70;3.50;;;;;;;;;;5096748;28;20031;-28
2023/04/10 04:21:02;;;;;;;4.18;3.97;;;;;;;;;;5095484;28;20035;-30
2023/04/10 04:23:28;;;;;;;4.35;4.05;;;;;;;;;;5096492;28;20082;-29
2023/04/10 04:25:55;;;;;;;4.25;4.05;;;;;;;;;;5096892;28;20099;-28
2023/04/10 04:28:22;;;;;;;4.80;4.50;;;;;;;;;;5096274;28;20028;-27
2023/04/10 04:30:48;;;;;;;3.95;3.75;;;;;;;;;;5096152;28;20455;-29
2023/04/10 04:33:14;;;;;;;4.00;3.80;;;;;;;;;;5096116;28;20518;-28
2023/04/10 04:35:40;;;;;;;4.03;3.83;;;;;;;;;;5096185;28;20027;-31
2023/04/10 04:38:06;;;;;;;3.85;3.65;;;;;;;;;;5096117;28;20023;-30
2023/04/10 04:40:32;;;;;;;4.05;3.85;;;;;;;;;;5096070;28;20047;-33
2023/04/10 04:42:59;;;;;;;4.40;4.15;;;;;;;;;;5096201;28;20039;-29
2023/04/10 04:45:25;;;;;;;3.97;3.78;;;;;;;;;;5096528;28;20055;-31
2023/04/10 04:47:51;;;;;;;4.15;3.92;;;;;;;;;;5096187;28;20031;-28
2023/04/10 04:50:17;;;;;;;3.90;3.70;;;;;;;;;;5095641;28;20089;-27
2023/04/10 04:52:43;;;;;;;4.28;4.07;;;;;;;;;;5095799;28;20099;-30
2023/04/10 04:55:10;;;;;;;4.30;3.90;;;;;;;;;;5096495;28;20024;-28
2023/04/10 04:57:36;;;;;;;3.90;3.70;;;;;;;;;;5096027;28;20024;-31
2023/04/10 05:00:02;;;;;;;3.47;3.28;;;;;;;;;;5095980;28;20443;-31
2023/04/10 05:02:28;;;;;;;3.60;3.40;;;;;;;;;;5095620;28;20043;-32
2023/04/10 05:04:54;;;;;;;3.60;3.40;;;;;;;;;;5095647;28;20060;-30
2023/04/10 05:07:20;;;;;;;3.63;3.42;;;;;;;;;;5095878;28;20028;-29
2023/04/10 05:09:47;;;;;;;3.63;3.42;;;;;;;;;;5095633;28;20342;-29
2023/04/10 05:12:13;;;;;;;3.90;3.70;;;;;;;;;;5094874;28;20029;-27
2023/04/10 05:14:39;;;;;;;3.97;3.78;;;;;;;;;;5095727;28;20099;-29
2023/04/10 05:17:05;;;;;;;3.45;3.25;;;;;;;;;;5095660;28;20020;-31
2023/04/10 05:19:31;;;;;;;3.25;3.05;;;;;;;;;;5095654;28;20101;-32
2023/04/10 05:21:57;;;;;;;3.97;3.78;;;;;;;;;;5096044;28;20048;-30
2023/04/10 05:24:23;;;;;;;3.60;3.40;;;;;;;;;;5095818;28;20031;-34
2023/04/10 05:26:49;;;;;;;3.95;3.75;;;;;;;;;;5095547;28;20028;-30
2023/04/10 05:29:16;;;;;;;3.72;3.53;;;;;;;;;;5095175;28;20020;-29
2023/04/10 05:31:42;;;;;;;3.78;3.58;;;;;;;;;;5095116;28;20477;-28
2023/04/10 05:34:08;;;;;;;4.22;4.03;;;;;;;;;;5095304;28;20099;-29
2023/04/10 05:36:35;;;;;;;3.47;3.30;;;;;;;;;;5095685;28;20447;-33
2023/04/10 05:39:01;;;;;;;4.38;4.18;;;;;;;;;;5095290;28;20053;-28
2023/04/10 05:41:27;;;;;;;3.95;3.75;;;;;;;;;;5095023;28;20408;-28
2023/04/10 05:43:53;;;;;;;3.60;3.40;;;;;;;;;;5095259;28;20028;-31
2023/04/10 05:46:20;;;;;;;3.80;3.60;;;;;;;;;;5095199;28;20099;-31
2023/04/10 05:48:46;;;;;;;3.63;3.42;;;;;;;;;;5094762;28;20040;-31
2023/04/10 05:51:12;;;;;;;3.85;3.65;;;;;;;;;;5095055;28;20029;-29
2023/04/10 05:53:38;;;;;;;4.63;4.32;;;;;;;;;;5095073;28;20350;-30
2023/04/10 05:56:04;;;;;;;3.95;3.75;;;;;;;;;;5094837;28;20035;-26
2023/04/10 05:58:30;;;;;;;3.63;3.42;;;;;;;;;;5095082;28;20016;-28
2023/04/10 06:03:32;;;;;;;3.80;3.60;;;;;;;;;;5358897;22;20117;-24
2023/04/10 06:06:01;;;;;;;3.60;3.40;;;;;;;;;;5074842;28;20422;-24
2023/04/10 06:08:27;;;;;;;4.00;3.80;;;;;;;;;;5074755;28;20042;-23
2023/04/10 06:10:53;;;;;;;3.97;3.70;;;;;;;;;;5074431;28;20443;-24
2023/04/10 06:13:19;;;;;;;3.90;3.70;;;;;;;;;;5074372;28;20028;-24
2023/04/10 06:15:45;;;;;;;4.30;4.10;;;;;;;;;;5074445;28;20021;-22
2023/04/10 06:18:12;;;;;;;3.95;3.65;;;;;;;;;;5074679;28;20023;-23
2023/04/10 06:20:38;;;;;;;3.85;3.65;;;;;;;;;;5074647;28;20036;-22
2023/04/10 06:23:04;;;;;;;4.00;3.80;;;;;;;;;;5076536;28;20040;-24
2023/04/10 06:25:30;;;;;;;4.05;3.85;;;;;;;;;;5078659;28;20032;-24
2023/04/10 06:27:57;;;;;;;3.90;3.70;;;;;;;;;;5078370;28;20039;-23
2023/04/10 06:30:23;;;;;;;3.67;3.47;;;;;;;;;;5078761;28;20435;-23
2023/04/10 06:32:49;;;;;;;3.95;3.75;;;;;;;;;;5078219;28;20024;-23
2023/04/10 06:35:15;;;;;;;3.90;3.70;;;;;;;;;;5078181;28;20024;-24
2023/04/10 06:37:42;;;;;;;4.05;3.85;;;;;;;;;;5078209;28;20027;-24
2023/04/10 06:40:10;;;;;;;3.50;3.25;;;;;;;;;;5078679;28;20020;-24
2023/04/10 06:42:37;;;;;;;3.83;3.63;;;;;;;;;;5078205;28;20032;-22
2023/04/10 06:45:03;;;;;;;3.88;3.67;;;;;;;;;;5078299;28;20459;-23
2023/04/10 06:47:30;;;;;;;3.88;3.67;;;;;;;;;;5078231;28;20032;-22
2023/04/10 06:49:57;;;;;;;4.57;4.28;;;;;;;;;;5078094;28;20033;-24
2023/04/10 06:52:23;;;;;;;3.95;3.72;;;;;;;;;;5078227;28;20020;-23
2023/04/10 06:54:49;;;;;;;3.03;2.92;;;;;;;;;;5077845;28;20040;-23
2023/04/10 06:57:15;;;;;;;3.83;3.60;;;;;;;;;;5077790;28;20027;-23
2023/04/10 06:59:42;;;;;;;4.13;3.92;;;;;;;;;;5077772;28;20101;-22
2023/04/10 07:02:08;;;;;;;4.25;4.05;;;;;;;;;;5077661;28;20378;-24
2023/04/10 07:04:34;;;;;;;3.80;3.60;;;;;;;;;;5077992;28;20430;-23
2023/04/10 07:07:01;;;;;;;3.85;3.65;;;;;;;;;;5077889;28;20048;-25
2023/04/10 07:09:27;;;;;;;4.50;4.20;;;;;;;;;;5059912;28;20332;-23
2023/04/10 07:11:53;;;;;;;4.40;4.10;;;;;;;;;;5077420;28;20025;-23
2023/04/10 07:14:19;;;;;;;4.22;3.92;;;;;;;;;;5077771;28;20029;-23
2023/04/10 07:16:45;;;;;;;3.75;3.55;;;;;;;;;;5077521;28;20032;-22
2023/04/10 07:19:11;;;;;;;3.90;3.70;;;;;;;;;;5077648;28;20078;-24
2023/04/10 07:21:38;;;;;;;3.67;3.47;;;;;;;;;;5077619;28;20086;-22
2023/04/10 07:24:04;;;;;;;3.60;3.40;;;;;;;;;;5077491;28;20029;-22
2023/04/10 07:26:30;;;;;;;3.85;3.65;;;;;;;;;;5077813;28;20028;-23
2023/04/10 07:28:56;;;;;;;3.50;3.30;;;;;;;;;;5077197;28;20028;-24
2023/04/10 07:31:22;;;;;;;3.80;3.60;;;;;;;;;;5077099;28;20119;-24
2023/04/10 07:33:48;;;;;;;3.85;3.65;;;;;;;;;;5058588;28;20355;-24
2023/04/10 07:36:15;;;;;;;4.35;4.03;;;;;;;;;;5077061;28;20033;-23
2023/04/10 07:38:41;;;;;;;4.00;3.80;;;;;;;;;;5077309;28;20031;-23
2023/04/10 07:41:09;;;;;;;3.72;3.53;;;;;;;;;;5059314;28;20035;-24
2023/04/10 07:43:35;;;;;;;3.60;3.40;;;;;;;;;;5077011;28;20024;-23
2023/04/10 07:46:01;;;;;;;3.83;3.63;;;;;;;;;;5077205;28;20024;-24
2023/04/10 07:48:27;;;;;;;4.03;3.83;;;;;;;;;;5076854;28;20145;-23
2023/04/10 07:50:53;;;;;;;3.55;3.35;;;;;;;;;;5076767;28;20073;-22
2023/04/10 07:53:20;;;;;;;4.03;3.83;;;;;;;;;;5076714;28;20028;-22
2023/04/10 07:55:47;;;;;;;4.40;4.20;;;;;;;;;;5077260;28;20129;-22
2023/04/10 07:58:14;;;;;;;3.58;3.38;;;;;;;;;;5076724;28;20017;-22
2023/04/10 08:00:41;;;;;;;4.25;4.05;;;;;;;;;;5076639;28;20126;-22
2023/04/10 08:03:07;;;;;;;4.25;4.03;;;;;;;;;;5076345;28;20127;-23
2023/04/10 08:05:33;;;;;;;3.53;3.33;;;;;;;;;;5076859;28;20032;-24
2023/04/10 08:07:59;;;;;;;3.75;3.55;;;;;;;;;;5076772;28;20440;-23
2023/04/10 08:10:25;;;;;;;3.75;3.55;;;;;;;;;;5076376;28;20028;-24
2023/04/10 08:12:52;;;;;;;3.75;3.55;;;;;;;;;;5076361;28;20035;-23
2023/04/10 08:15:18;;;;;;;3.83;3.63;;;;;;;;;;5076598;28;20016;-22
2023/04/10 08:17:44;;;;;;;3.90;3.70;;;;;;;;;;5076350;28;20028;-24
2023/04/10 08:20:11;;;;;;;3.78;3.47;;;;;;;;;;5076223;28;20025;-22
2023/04/10 08:22:37;;;;;;;3.92;3.72;;;;;;;;;;5076137;28;20040;-23
2023/04/10 08:25:04;;;;;;;3.80;3.60;;;;;;;;;;5076417;28;20336;-22
2023/04/10 08:27:30;;;;;;;4.07;3.88;;;;;;;;;;5076358;28;20039;-22
2023/04/10 08:29:57;;;;;;;3.72;3.53;;;;;;;;;;5058361;28;20020;-23
2023/04/10 08:32:25;;;;;;;4.13;3.92;;;;;;;;;;5075962;28;20036;-22
2023/04/10 08:34:51;;;;;;;3.80;3.60;;;;;;;;;;5076203;28;20031;-24
2023/04/10 08:37:18;;;;;;;3.30;3.10;;;;;;;;;;5076150;28;20337;-22
2023/04/10 08:39:45;;;;;;;4.38;4.05;;;;;;;;;;5075889;28;20021;-22
2023/04/10 08:42:11;;;;;;;4.20;3.92;;;;;;;;;;5075727;28;20493;-22
2023/04/10 08:44:38;;;;;;;3.80;3.60;;;;;;;;;;5075984;28;20078;-22
2023/04/10 08:47:05;;;;;;;4.28;3.97;;;;;;;;;;5075937;28;20020;-23
2023/04/10 08:49:43;;;;;;;4.13;3.92;;;;;;;;;;5075519;28;20024;-24
2023/04/10 08:52:12;;;;;;;4.03;3.83;;;;;;;;;;5075539;28;20074;-23
2023/04/10 08:54:38;;;;;;;3.28;3.08;;;;;;;;;;5075520;28;20100;-23
2023/04/10 08:57:06;;;;;;;4.10;3.90;;;;;;;;;;5075498;28;20025;-22
2023/04/10 08:59:32;;;;;;;3.70;3.50;;;;;;;;;;5075364;28;20085;-24
2023/04/10 09:01:59;;;;;;;4.03;3.83;;;;;;;;;;5075289;28;20056;-22
2023/04/10 09:04:25;;;;;;;3.88;3.67;;;;;;;;;;5075081;28;20044;-24
2023/04/10 09:06:52;;;;;;;4.45;3.92;;;;;;;;;;5075321;28;20021;-23
2023/04/10 09:09:18;;;;;;;3.97;3.78;;;;;;;;;;5075489;28;20154;-23
2023/04/10 09:11:54;;;;;;;3.53;3.33;;;;;;;;;;5075349;28;20032;-23
2023/04/10 09:14:24;;;;;;;3.83;3.63;;;;;;;;;;5057561;28;20047;-23
2023/04/10 09:16:51;;;;;;;3.80;3.60;;;;;;;;;;5075460;28;20025;-23
2023/04/10 09:19:33;;;;;;;4.00;3.80;;;;;;;;;;5075575;28;20029;-23
2023/04/10 09:21:59;;;;;;;4.00;3.80;;;;;;;;;;5075508;28;20020;-24
2023/04/10 09:24:26;;;;;;;4.30;4.10;;;;;;;;;;5075266;28;20032;-23
2023/04/10 09:26:52;;;;;;;4.75;4.45;;;;;;;;;;5075300;28;20100;-22
2023/04/10 09:29:18;;;;;;;4.03;3.75;;;;;;;;;;5074938;28;20021;-24
2023/04/10 09:31:45;;;;;;;4.47;4.28;;;;;;;;;;5074771;28;20029;-24
2023/04/10 09:34:14;;;;;;;3.92;3.72;;;;;;;;;;5074876;28;20033;-23
2023/04/10 09:36:56;;;;;;;4.20;4.00;;;;;;;;;;5074746;28;20461;-24
2023/04/10 09:39:32;;;;;;;4.65;4.35;;;;;;;;;;5075105;28;20503;-23
2023/04/10 09:41:58;;;;;;;3.40;3.20;;;;;;;;;;5074747;28;20025;-23
2023/04/10 09:44:35;;;;;;;3.95;3.75;;;;;;;;;;5075013;28;20036;-24
2023/04/10 09:47:13;;;;;;;3.90;3.70;;;;;;;;;;5075303;28;20099;-23
2023/04/10 09:49:51;;;;;;;4.43;4.13;;;;;;;;;;5074688;28;20036;-23
2023/04/10 09:52:27;;;;;;;3.63;3.42;;;;;;;;;;5074848;28;20369;-24
2023/04/10 09:54:54;;;;;;;4.13;3.92;;;;;;;;;;5074686;28;20059;-24
2023/04/10 09:57:21;;;;;;;4.15;3.95;;;;;;;;;;5074393;28;20024;-23
2023/04/10 09:59:49;;;;;;;4.18;3.97;;;;;;;;;;5074878;28;20355;-23
2023/04/10 10:02:16;;;;;;;4.43;4.13;;;;;;;;;;5074303;28;20071;-24
2023/04/10 10:04:44;;;;;;;4.15;3.95;;;;;;;;;;5057008;28;20029;-23
2023/04/10 10:07:10;;;;;;;4.15;3.95;;;;;;;;;;5074785;28;20028;-22
2023/04/10 10:09:37;;;;;;;4.15;3.95;;;;;;;;;;5074727;28;20025;-23
2023/04/10 10:12:04;;;;;;;4.18;3.88;;;;;;;;;;5074675;28;20025;-23
2023/04/10 10:14:31;;;;;;;3.80;3.60;;;;;;;;;;5074449;28;20024;-23
2023/04/10 10:16:59;;;;;;;4.55;4.30;;;;;;;;;;5074433;28;20051;-24
2023/04/10 10:19:38;;;;;;;4.05;3.85;;;;;;;;;;5074385;28;20074;-24
2023/04/10 10:22:04;;;;;;;4.43;4.13;;;;;;;;;;5074346;28;20032;-24
2023/04/10 10:24:31;;;;;;;3.95;3.65;;;;;;;;;;5074344;28;20343;-24
2023/04/10 10:27:00;;;;;;;4.00;3.80;;;;;;;;;;5057210;28;20472;-23
2023/04/10 10:29:27;;;;;;;3.75;3.55;;;;;;;;;;5074503;28;20039;-23
2023/04/10 10:31:55;;;;;;;4.40;4.15;;;;;;;;;;5074257;28;20363;-23
2023/04/10 10:34:22;;;;;;;4.30;4.00;;;;;;;;;;5074202;28;20086;-23
2023/04/10 10:36:49;;;;;;;4.90;4.60;;;;;;;;;;5074491;28;20028;-24
2023/04/10 10:39:34;;;;;;;4.38;4.18;;;;;;;;;;5074182;28;20067;-22
2023/04/10 10:42:23;;;;;;;4.00;3.80;;;;;;;;;;5074399;28;20025;-23
2023/04/10 10:44:49;;;;;;;4.32;4.03;;;;;;;;;;5074471;28;20354;-23
2023/04/10 10:47:17;;;;;;;4.32;4.03;;;;;;;;;;5074093;28;20028;-22
2023/04/10 10:50:00;;;;;;;4.38;4.18;;;;;;;;;;5074328;28;20020;-24
2023/04/10 10:52:39;;;;;;;4.03;3.83;;;;;;;;;;5074309;28;20465;-22
2023/04/10 10:55:23;;;;;;;4.40;4.20;;;;;;;;;;5074346;28;20436;-22
2023/04/10 10:57:53;;;;;;;4.50;4.20;;;;;;;;;;5074030;28;20036;-24
2023/04/10 11:00:20;;;;;;;4.32;4.13;;;;;;;;;;5074304;28;20379;-22
2023/04/10 11:03:06;;;;;;;3.83;3.63;;;;;;;;;;5073947;28;20122;-24
2023/04/10 11:05:51;;;;;;;4.50;4.20;;;;;;;;;;5073923;28;20024;-22
2023/04/10 11:08:17;;;;;;;4.10;3.90;;;;;;;;;;5073845;28;20112;-23
2023/04/10 11:11:05;;;;;;;4.30;4.10;;;;;;;;;;5076832;28;20028;-24
2023/04/10 11:13:32;;;;;;;3.78;3.55;;;;;;;;;;5077373;28;20025;-24
2023/04/10 11:16:00;;;;;;;4.53;4.25;;;;;;;;;;5059818;28;20082;-22
2023/04/10 11:18:52;;;;;;;4.07;3.88;;;;;;;;;;5077642;28;20378;-23
2023/04/10 11:21:22;;;;;;;4.07;3.88;;;;;;;;;;5047041;28;20060;-23
2023/04/10 11:23:48;;;;;;;3.67;3.47;;;;;;;;;;5077254;28;20057;-24
2023/04/10 11:26:40;;;;;;;4.07;3.88;;;;;;;;;;5077194;28;20033;-21
2023/04/10 11:29:10;;;;;;;4.20;3.90;;;;;;;;;;5077183;28;20063;-24
2023/04/10 11:31:36;;;;;;;4.00;3.80;;;;;;;;;;5077886;28;20048;-24
2023/04/10 11:34:03;;;;;;;3.60;3.40;;;;;;;;;;5077112;28;20031;-23
2023/04/10 11:36:31;;;;;;;4.25;3.97;;;;;;;;;;5077117;28;20021;-24
2023/04/10 11:39:01;;;;;;;4.22;3.92;;;;;;;;;;5077098;28;20435;-22
2023/04/10 11:41:31;;;;;;;4.13;3.83;;;;;;;;;;5076982;28;20032;-23
2023/04/10 11:43:57;;;;;;;4.22;4.03;;;;;;;;;;5077177;28;20020;-23
2023/04/10 11:46:24;;;;;;;4.40;4.20;;;;;;;;;;5076884;28;20161;-23
2023/04/10 11:48:53;;;;;;;4.10;3.90;;;;;;;;;;5076872;28;20036;-24
2023/04/10 11:51:20;;;;;;;4.25;3.95;;;;;;;;;;5059154;28;20032;-24
2023/04/10 11:53:46;;;;;;;4.00;3.80;;;;;;;;;;5076681;28;20024;-22
2023/04/10 11:56:16;;;;;;;4.05;3.85;;;;;;;;;;5077252;28;20051;-22
2023/04/10 11:58:42;;;;;;;3.58;3.38;;;;;;;;;;5076779;28;20324;-24
2023/04/10 12:01:13;;;;;;;4.78;4.50;;;;;;;;;;5076684;28;20394;-22
2023/04/10 12:03:40;;;;;;;4.20;4.00;;;;;;;;;;5076354;28;20056;-23
2023/04/10 12:06:11;;;;;;;4.05;3.85;;;;;;;;;;5077094;28;20335;-24
2023/04/10 12:08:38;;;;;;;3.83;3.63;;;;;;;;;;5076513;28;20024;-22
2023/04/10 12:11:05;;;;;;;4.03;3.83;;;;;;;;;;5076636;28;20040;-23
2023/04/10 12:13:31;;;;;;;3.58;3.38;;;;;;;;;;5076339;28;20056;-23
2023/04/10 12:15:59;;;;;;;3.63;3.42;;;;;;;;;;5076591;28;20100;-23
2023/04/10 12:18:25;;;;;;;3.97;3.78;;;;;;;;;;5076528;28;20197;-24
2023/04/10 12:20:55;;;;;;;4.00;3.80;;;;;;;;;;5076467;28;20028;-24
2023/04/10 12:23:22;;;;;;;3.83;3.63;;;;;;;;;;5076417;28;20044;-22
2023/04/10 12:25:48;;;;;;;4.03;3.83;;;;;;;;;;5076410;28;20355;-24
2023/04/10 12:28:18;;;;;;;4.13;3.92;;;;;;;;;;5076108;28;20028;-22
2023/04/10 12:30:52;;;;;;;4.13;3.90;;;;;;;;;;5075959;28;20035;-22
2023/04/10 12:33:25;;;;;;;4.22;3.83;;;;;;;;;;5075964;28;20102;-24
2023/04/10 12:35:53;;;;;;;4.00;3.80;;;;;;;;;;5075899;28;20039;-22
2023/04/10 12:38:35;;;;;;;4.22;4.03;;;;;;;;;;5076165;28;20036;-23
2023/04/10 12:41:01;;;;;;;4.55;4.25;;;;;;;;;;5076131;28;20054;-24
2023/04/10 12:43:37;;;;;;;3.65;3.45;;;;;;;;;;5075955;28;20442;-25
2023/04/10 12:46:05;;;;;;;3.83;3.63;;;;;;;;;;5076011;28;20362;-23
2023/04/10 12:48:31;;;;;;;3.95;3.75;;;;;;;;;;5075717;28;20028;-23
2023/04/10 12:50:57;;;;;;;4.05;3.85;;;;;;;;;;5075844;28;20506;-22
2023/04/10 12:53:24;;;;;;;4.53;4.03;;;;;;;;;;5075532;28;20017;-25
2023/04/10 12:56:01;;;;;;;4.65;4.35;;;;;;;;;;5075441;28;20032;-23
2023/04/10 12:58:27;;;;;;;4.13;3.92;;;;;;;;;;5075474;28;20017;-24
2023/04/10 13:00:55;;;;;;;3.85;3.65;;;;;;;;;;5075703;28;20032;-23
2023/04/10 13:03:21;;;;;;;4.25;4.05;;;;;;;;;;5075235;28;20106;-24
2023/04/10 13:05:47;;;;;;;4.22;3.90;;;;;;;;;;5075883;28;20020;-23
2023/04/10 13:08:14;;;;;;;4.03;3.83;;;;;;;;;;5075339;28;20115;-22
2023/04/10 13:10:42;;;;;;;3.95;3.75;;;;;;;;;;5057578;28;20024;-24
2023/04/10 13:13:10;;;;;;;3.90;3.70;;;;;;;;;;5075175;28;20021;-28
2023/04/10 13:15:37;;;;;;;4.30;4.10;;;;;;;;;;5075172;28;20020;-23
2023/04/10 13:18:07;;;;;;;4.65;4.35;;;;;;;;;;5075354;28;20029;-24
2023/04/10 13:20:37;;;;;;;4.25;4.05;;;;;;;;;;5075624;28;20172;-24
2023/04/10 13:23:03;;;;;;;3.65;3.45;;;;;;;;;;5075005;28;20086;-24
2023/04/10 13:25:33;;;;;;;4.00;3.80;;;;;;;;;;5075040;28;20107;-22
2023/04/10 13:28:00;;;;;;;4.38;4.15;;;;;;;;;;5075243;28;20021;-24
2023/04/10 13:30:26;;;;;;;3.95;3.75;;;;;;;;;;5075167;28;20028;-24
2023/04/10 13:32:52;;;;;;;4.97;4.38;;;;;;;;;;5056645;28;20077;-23
2023/04/10 13:35:18;;;;;;;4.50;4.30;;;;;;;;;;5057304;28;20016;-23
2023/04/10 13:37:45;;;;;;;3.75;3.55;;;;;;;;;;5075409;28;20031;-24
2023/04/10 13:40:11;;;;;;;4.70;4.40;;;;;;;;;;5074882;28;20024;-24
2023/04/10 13:42:37;;;;;;;4.25;3.92;;;;;;;;;;5074909;28;20036;-22
2023/04/10 13:45:03;;;;;;;4.72;4.43;;;;;;;;;;5075088;28;20020;-22
2023/04/10 13:47:29;;;;;;;4.15;3.95;;;;;;;;;;5075285;28;20028;-23
2023/04/10 13:49:56;;;;;;;4.85;4.55;;;;;;;;;;5057041;28;20028;-22
2023/04/10 13:52:23;;;;;;;4.55;4.30;;;;;;;;;;5074839;28;20430;-24
2023/04/10 13:54:49;;;;;;;4.30;4.10;;;;;;;;;;5074939;28;20017;-22
2023/04/10 13:57:15;;;;;;;4.63;4.32;;;;;;;;;;5074886;28;20044;-24
2023/04/10 13:59:41;;;;;;;4.88;4.57;;;;;;;;;;5074633;28;20098;-22
2023/04/10 14:02:08;;;;;;;4.30;4.10;;;;;;;;;;5074897;28;20028;-23
2023/04/10 14:04:34;;;;;;;4.75;4.45;;;;;;;;;;5074837;28;20085;-24
2023/04/10 14:07:01;;;;;;;4.22;4.03;;;;;;;;;;5074821;28;20099;-24
2023/04/10 14:09:27;;;;;;;4.55;4.30;;;;;;;;;;5074743;28;20355;-22
2023/04/10 14:11:53;;;;;;;4.15;3.95;;;;;;;;;;5074886;28;20166;-23
2023/04/10 14:14:22;;;;;;;4.70;4.40;;;;;;;;;;5074491;28;20016;-23
2023/04/10 14:16:50;;;;;;;4.32;4.13;;;;;;;;;;5074356;28;20103;-24
2023/04/10 14:19:16;;;;;;;4.28;3.97;;;;;;;;;;5074683;28;20397;-23
2023/04/10 14:21:43;;;;;;;5.20;4.90;;;;;;;;;;5074430;28;20025;-23
2023/04/10 14:24:09;;;;;;;4.65;4.35;;;;;;;;;;5056650;28;20474;-24
2023/04/10 14:26:36;;;;;;;4.20;4.00;;;;;;;;;;5074285;28;20036;-25
2023/04/10 14:29:02;;;;;;;4.93;4.63;;;;;;;;;;5074675;28;20155;-23
2023/04/10 14:31:28;;;;;;;4.13;3.92;;;;;;;;;;5074467;28;20037;-23
2023/04/10 14:33:54;;;;;;;4.18;3.97;;;;;;;;;;5074226;28;20055;-23
2023/04/10 14:36:21;;;;;;;4.18;3.97;;;;;;;;;;5074522;28;20021;-23
2023/04/10 14:38:47;;;;;;;4.68;4.40;;;;;;;;;;5074186;28;20028;-24
2023/04/10 14:41:14;;;;;;;4.68;4.38;;;;;;;;;;5074227;28;20039;-24
2023/04/10 14:43:40;;;;;;;4.72;4.43;;;;;;;;;;5058062;28;20367;-24
2023/04/10 14:46:06;;;;;;;5.57;5.25;;;;;;;;;;5078028;28;20032;-24
2023/04/10 14:48:32;;;;;;;5.20;4.90;;;;;;;;;;5078258;28;20025;-22